Time;durP1;ratioP1;P1;durP2;ratioP2;P2;SDS_P1;SDS_P2;PMS_P1;PMS_P2;Temp;Humidity;BMP_temperature;BMP_pressure;BME280_temperature;BME280_humidity;BME280_pressure;Samples;Min_cycle;Max_cycle;Signal;HPM_P1;HPM_P2
2023/01/02 00:01:25;;;;;;;8.10;4.10;;;13.70;99.90;;;;;;5060973;28;20479;-68
2023/01/02 00:03:55;;;;;;;10.63;4.80;;;13.70;99.90;;;;;;5060438;28;20537;-67
2023/01/02 00:06:22;;;;;;;8.50;4.30;;;13.70;99.90;;;;;;5060034;28;20479;-68
2023/01/02 00:08:50;;;;;;;6.63;4.43;;;13.80;99.90;;;;;;5059883;28;20549;-68
2023/01/02 00:11:17;;;;;;;7.20;4.40;;;13.80;99.90;;;;;;5060270;28;20487;-68
2023/01/02 00:13:44;;;;;;;6.53;4.47;;;13.80;99.90;;;;;;5061146;28;20995;-68
2023/01/02 00:16:11;;;;;;;13.00;4.30;;;13.80;99.90;;;;;;5060097;28;20462;-68
2023/01/02 00:18:37;;;;;;;8.40;4.13;;;13.80;99.90;;;;;;5060055;28;20470;-68
2023/01/02 00:21:05;;;;;;;5.97;5.37;;;13.80;99.90;;;;;;5059389;28;20461;-68
2023/01/02 00:23:32;;;;;;;10.70;4.50;;;13.90;99.90;;;;;;5060235;28;20557;-68
2023/01/02 00:26:00;;;;;;;7.23;4.07;;;13.90;99.90;;;;;;5059848;28;20482;-68
2023/01/02 00:28:27;;;;;;;7.80;4.53;;;13.90;99.90;;;;;;5059483;28;20907;-68
2023/01/02 00:30:54;;;;;;;6.37;4.00;;;14.00;99.90;;;;;;5062836;28;20545;-68
2023/01/02 00:33:21;;;;;;;7.37;4.80;;;13.90;99.90;;;;;;5063766;28;20455;-67
2023/01/02 00:35:48;;;;;;;7.73;4.87;;;14.00;99.90;;;;;;5063842;28;20455;-68
2023/01/02 00:38:15;;;;;;;10.13;5.23;;;14.00;99.90;;;;;;5064571;28;20469;-68
2023/01/02 00:40:42;;;;;;;8.37;5.57;;;14.00;99.90;;;;;;5064447;28;20463;-68
2023/01/02 00:43:10;;;;;;;8.37;5.07;;;13.90;99.90;;;;;;5065172;28;21025;-68
2023/01/02 00:45:37;;;;;;;6.80;4.50;;;13.80;99.90;;;;;;5064878;28;20542;-69
2023/01/02 00:48:04;;;;;;;9.07;5.00;;;13.80;99.90;;;;;;5064536;28;20474;-69
2023/01/02 00:50:30;;;;;;;12.83;5.17;;;13.70;99.90;;;;;;5064139;28;20469;-68
2023/01/02 00:52:57;;;;;;;7.97;5.00;;;13.70;99.90;;;;;;5063815;28;20932;-69
2023/01/02 00:55:24;;;;;;;14.77;5.40;;;13.70;99.90;;;;;;5064379;28;20550;-68
2023/01/02 00:57:51;;;;;;;13.90;4.53;;;13.70;99.90;;;;;;5065066;28;20534;-67
2023/01/02 01:00:20;;;;;;;10.50;5.80;;;13.60;99.90;;;;;;5064186;28;20455;-68
2023/01/02 01:02:46;;;;;;;8.63;5.43;;;13.60;99.90;;;;;;5065298;28;20522;-68
2023/01/02 01:05:13;;;;;;;11.87;6.33;;;13.60;99.90;;;;;;5064580;28;20490;-68
2023/01/02 01:07:40;;;;;;;10.57;5.53;;;13.60;99.90;;;;;;5064524;28;20501;-67
2023/01/02 01:10:08;;;;;;;6.87;5.43;;;13.60;99.90;;;;;;5064209;28;20526;-68
2023/01/02 01:12:34;;;;;;;10.07;4.70;;;13.50;99.90;;;;;;5064741;28;20538;-69
2023/01/02 01:15:01;;;;;;;9.37;5.07;;;13.60;99.90;;;;;;5064803;28;20842;-68
2023/01/02 01:17:31;;;;;;;8.93;4.77;;;13.50;99.90;;;;;;5062837;28;20494;-68
2023/01/02 01:19:58;;;;;;;11.73;4.97;;;13.60;99.90;;;;;;5062357;28;20981;-68
2023/01/02 01:22:25;;;;;;;7.17;4.30;;;13.50;99.90;;;;;;5063145;28;20479;-68
2023/01/02 01:24:51;;;;;;;6.60;4.60;;;13.60;99.90;;;;;;5063107;28;20487;-67
2023/01/02 01:27:18;;;;;;;11.10;5.30;;;13.60;99.90;;;;;;5062406;28;20485;-67
2023/01/02 01:29:45;;;;;;;11.60;4.80;;;13.60;99.90;;;;;;5063824;28;20545;-69
2023/01/02 01:32:12;;;;;;;14.17;4.90;;;13.60;99.90;;;;;;5062739;28;20573;-68
2023/01/02 01:34:40;;;;;;;6.23;4.53;;;13.70;99.90;;;;;;5062896;28;20469;-68
2023/01/02 01:37:07;;;;;;;10.47;5.20;;;13.70;99.90;;;;;;5062328;28;20537;-67
2023/01/02 01:39:34;;;;;;;6.50;4.57;;;13.70;99.90;;;;;;5062146;28;20465;-68
2023/01/02 01:42:01;;;;;;;7.70;4.20;;;13.70;99.90;;;;;;5062509;28;20463;-67
2023/01/02 01:44:42;;;;;;;13.53;5.33;;;13.70;99.90;;;;;;5061559;28;20463;-66
2023/01/02 01:47:17;;;;;;;11.20;4.90;;;13.70;99.90;;;;;;5062483;28;20470;-68
2023/01/02 01:49:46;;;;;;;12.40;4.80;;;13.70;99.90;;;;;;5062310;28;20453;-68
2023/01/02 01:52:17;;;;;;;11.57;4.23;;;13.60;99.90;;;;;;5062364;28;20451;-68
2023/01/02 01:54:48;;;;;;;6.80;4.13;;;13.60;99.90;;;;;;5063899;28;20440;-68
2023/01/02 01:57:19;;;;;;;12.30;4.03;;;13.60;99.90;;;;;;5063004;28;20495;-67
2023/01/02 01:59:46;;;;;;;5.67;3.93;;;13.60;99.90;;;;;;5062818;28;20469;-68
2023/01/02 02:02:14;;;;;;;7.00;4.10;;;13.60;99.90;;;;;;5062060;28;20455;-67
2023/01/02 02:04:43;;;;;;;9.80;3.87;;;13.60;99.90;;;;;;5062655;28;20855;-69
2023/01/02 02:07:12;;;;;;;8.03;4.10;;;13.60;99.90;;;;;;5062860;28;20539;-67
2023/01/02 02:09:44;;;;;;;8.17;4.73;;;13.70;99.90;;;;;;5062741;28;20546;-68
2023/01/02 02:12:12;;;;;;;8.10;4.30;;;13.60;99.90;;;;;;5062804;28;20470;-69
2023/01/02 02:14:39;;;;;;;8.07;3.90;;;13.60;99.90;;;;;;5063749;28;20618;-67
2023/01/02 02:17:16;;;;;;;7.23;4.47;;;13.60;99.90;;;;;;5064463;28;20494;-67
2023/01/02 02:20:10;;;;;;;6.50;4.07;;;13.50;99.90;;;;;;5064948;28;20526;-70
2023/01/02 02:23:25;;;;;;;6.10;3.87;;;13.50;99.90;;;;;;5064524;28;20518;-67
2023/01/02 02:26:11;;;;;;;9.53;3.87;;;13.50;99.90;;;;;;5052613;28;20514;-68
2023/01/02 02:29:12;;;;;;;7.50;4.03;;;13.50;99.90;;;;;;5064715;28;20487;-69
2023/01/02 02:31:49;;;;;;;9.30;4.10;;;13.50;99.90;;;;;;5064363;28;20927;-68
2023/01/02 02:34:22;;;;;;;6.00;3.80;;;13.40;99.90;;;;;;5063542;28;20478;-68
2023/01/02 02:36:57;;;;;;;8.83;4.33;;;13.40;99.90;;;;;;5064539;28;20952;-69
2023/01/02 02:39:35;;;;;;;8.00;4.50;;;13.50;99.90;;;;;;5063744;28;20435;-68
2023/01/02 02:42:12;;;;;;;8.20;4.10;;;13.50;99.90;;;;;;5064043;28;20518;-66
2023/01/02 02:44:49;;;;;;;5.93;3.80;;;13.50;99.90;;;;;;5064090;28;20485;-68
2023/01/02 02:47:26;;;;;;;6.53;4.07;;;13.50;99.90;;;;;;5063062;28;20470;-68
2023/01/02 02:50:00;;;;;;;11.80;4.60;;;13.50;99.90;;;;;;5062943;28;20539;-67
2023/01/02 02:52:32;;;;;;;10.23;4.53;;;13.50;99.90;;;;;;5061265;28;20519;-67
2023/01/02 02:55:04;;;;;;;10.27;4.97;;;13.50;99.90;;;;;;5062035;28;20439;-68
2023/01/02 02:57:32;;;;;;;11.23;4.67;;;13.50;99.90;;;;;;5061993;28;20535;-68
2023/01/02 02:59:59;;;;;;;7.73;4.40;;;13.50;99.90;;;;;;5062009;28;20483;-68
2023/01/02 03:02:27;;;;;;;7.27;4.37;;;13.50;99.90;;;;;;5062093;28;20483;-67
2023/01/02 03:04:59;;;;;;;6.20;5.23;;;13.50;99.90;;;;;;5062096;28;20523;-67
2023/01/02 03:07:32;;;;;;;7.90;4.03;;;13.50;99.90;;;;;;5061426;28;20854;-68
2023/01/02 03:10:13;;;;;;;8.70;4.17;;;13.50;99.90;;;;;;5062267;28;20930;-68
2023/01/02 03:12:47;;;;;;;8.73;3.93;;;13.60;99.90;;;;;;5061901;28;20443;-68
2023/01/02 03:15:20;;;;;;;6.13;4.23;;;13.60;99.90;;;;;;5061944;28;20445;-68
2023/01/02 03:17:58;;;;;;;6.53;4.80;;;13.60;99.90;;;;;;5061635;28;20503;-68
2023/01/02 03:20:31;;;;;;;9.30;4.70;;;13.60;99.90;;;;;;5061309;28;20526;-68
2023/01/02 03:23:02;;;;;;;9.10;4.60;;;13.60;99.90;;;;;;5060829;28;20565;-69
2023/01/02 03:25:30;;;;;;;8.70;5.67;;;13.60;99.90;;;;;;5062183;28;20526;-68
2023/01/02 03:28:00;;;;;;;6.33;4.53;;;13.60;99.90;;;;;;5061748;28;20661;-68
2023/01/02 03:30:30;;;;;;;6.37;4.60;;;13.60;99.90;;;;;;5061027;28;20534;-68
2023/01/02 03:33:03;;;;;;;5.67;3.60;;;13.60;99.90;;;;;;5062198;28;20435;-68
2023/01/02 03:35:36;;;;;;;10.00;4.30;;;13.60;99.90;;;;;;5061506;28;20454;-68
2023/01/02 03:38:06;;;;;;;8.97;4.57;;;13.60;99.90;;;;;;5062146;28;20440;-68
2023/01/02 03:40:37;;;;;;;5.60;4.23;;;13.60;99.90;;;;;;5061649;28;20447;-69
2023/01/02 03:43:10;;;;;;;6.43;3.83;;;13.60;99.90;;;;;;5061596;28;20534;-67
2023/01/02 03:45:39;;;;;;;8.20;4.60;;;13.60;99.90;;;;;;5061134;28;20775;-67
2023/01/02 03:48:13;;;;;;;5.80;3.80;;;13.60;99.90;;;;;;5061878;28;20483;-67
2023/01/02 03:50:46;;;;;;;8.63;4.47;;;13.60;99.90;;;;;;5062389;28;20505;-69
2023/01/02 03:53:14;;;;;;;7.00;4.07;;;13.60;99.90;;;;;;5063136;28;20514;-67
2023/01/02 03:55:48;;;;;;;6.00;3.97;;;13.60;99.90;;;;;;5061784;28;21002;-68
2023/01/02 03:58:22;;;;;;;5.20;3.97;;;13.70;99.90;;;;;;5061920;28;20453;-67
2023/01/02 04:00:54;;;;;;;5.97;4.43;;;13.70;99.90;;;;;;5062025;28;20453;-67
2023/01/02 04:03:28;;;;;;;7.33;3.90;;;13.70;99.90;;;;;;5061858;28;20803;-67
2023/01/02 04:06:03;;;;;;;4.60;3.83;;;13.70;99.90;;;;;;5064587;28;20452;-68
2023/01/02 04:08:36;;;;;;;10.20;5.07;;;13.80;99.90;;;;;;5065960;28;20558;-68
2023/01/02 04:11:05;;;;;;;7.90;3.90;;;13.70;99.90;;;;;;5065360;28;20478;-66
2023/01/02 04:13:38;;;;;;;11.00;4.17;;;13.80;99.90;;;;;;5065722;28;20978;-68
2023/01/02 04:16:08;;;;;;;8.20;3.70;;;13.80;99.90;;;;;;5064307;28;20443;-69
2023/01/02 04:18:40;;;;;;;7.60;4.43;;;13.80;99.90;;;;;;5065269;28;20457;-67
2023/01/02 04:21:11;;;;;;;8.00;5.30;;;13.80;99.90;;;;;;5064604;28;20432;-68
2023/01/02 04:23:41;;;;;;;8.90;3.90;;;13.90;99.90;;;;;;5065011;28;20504;-67
2023/01/02 04:26:13;;;;;;;10.10;4.70;;;13.90;99.90;;;;;;5065502;28;20473;-68
2023/01/02 04:28:40;;;;;;;6.43;5.50;;;13.90;99.90;;;;;;5065129;28;20466;-68
2023/01/02 04:31:11;;;;;;;6.40;4.43;;;14.00;99.90;;;;;;5064785;28;20795;-68
2023/01/02 04:33:43;;;;;;;5.83;3.87;;;14.00;99.90;;;;;;5064476;28;20511;-68
2023/01/02 04:36:11;;;;;;;5.67;4.23;;;14.00;99.90;;;;;;5064833;28;20439;-67
2023/01/02 04:38:39;;;;;;;7.33;4.73;;;14.00;99.90;;;;;;5064858;28;20459;-67
2023/01/02 04:41:06;;;;;;;4.87;4.13;;;14.00;99.90;;;;;;5064341;28;20455;-68
2023/01/02 04:43:34;;;;;;;6.30;4.13;;;14.10;99.90;;;;;;5064470;28;20494;-68
2023/01/02 04:46:01;;;;;;;5.40;4.33;;;14.10;99.90;;;;;;5065090;28;20546;-68
2023/01/02 04:48:27;;;;;;;4.90;3.90;;;14.10;99.90;;;;;;5065544;28;21050;-68
2023/01/02 04:50:56;;;;;;;6.60;3.83;;;14.10;99.90;;;;;;5064177;28;20454;-68
2023/01/02 04:53:22;;;;;;;5.70;4.40;;;14.10;99.90;;;;;;5064670;28;20761;-68
2023/01/02 04:55:55;;;;;;;5.20;4.20;;;14.20;99.90;;;;;;5063798;28;20852;-67
2023/01/02 04:58:22;;;;;;;6.20;4.37;;;14.20;99.90;;;;;;5063791;28;20446;-68
2023/01/02 05:00:49;;;;;;;7.60;4.37;;;14.20;99.90;;;;;;5064173;28;20471;-67
2023/01/02 05:03:16;;;;;;;5.73;4.30;;;14.20;99.90;;;;;;5063316;28;20491;-68
2023/01/02 05:05:43;;;;;;;5.43;4.10;;;14.20;99.90;;;;;;5063582;28;20459;-68
2023/01/02 05:08:11;;;;;;;4.60;3.83;;;14.20;99.90;;;;;;5062916;28;20512;-68
2023/01/02 05:10:38;;;;;;;6.70;4.33;;;14.30;99.90;;;;;;5064048;28;20463;-67
2023/01/02 05:13:05;;;;;;;4.50;3.43;;;14.30;99.90;;;;;;5063181;28;20494;-68
2023/01/02 05:15:32;;;;;;;6.20;4.00;;;14.30;99.90;;;;;;5063103;28;20463;-67
2023/01/02 05:17:59;;;;;;;4.67;3.77;;;14.20;99.90;;;;;;5063250;28;20515;-68
2023/01/02 05:20:26;;;;;;;7.80;4.40;;;14.20;99.90;;;;;;5063151;28;20531;-68
2023/01/02 05:25:43;;;;;;;8.33;4.83;;;14.20;99.90;;;;;;5047593;28;20509;-68
2023/01/02 05:28:10;;;;;;;4.97;4.20;;;14.20;99.90;;;;;;5063398;28;20576;-67
2023/01/02 05:30:38;;;;;;;5.43;3.83;;;14.30;99.90;;;;;;5062813;28;20990;-68
2023/01/02 05:33:05;;;;;;;4.47;3.57;;;14.20;99.90;;;;;;5062989;28;20923;-69
2023/01/02 05:35:33;;;;;;;6.47;3.83;;;14.30;99.90;;;;;;5062657;28;20455;-67
2023/01/02 05:38:00;;;;;;;6.40;3.83;;;14.30;99.90;;;;;;5062952;28;20455;-67
2023/01/02 05:40:27;;;;;;;6.17;3.80;;;14.30;99.90;;;;;;5062792;28;20535;-68
2023/01/02 05:42:55;;;;;;;5.20;4.07;;;14.30;99.90;;;;;;5062316;28;20461;-68
2023/01/02 05:45:23;;;;;;;5.10;4.30;;;14.30;99.90;;;;;;5061802;28;20491;-66
2023/01/02 05:47:50;;;;;;;4.70;4.20;;;14.30;99.90;;;;;;5061776;28;20478;-67
2023/01/02 05:50:17;;;;;;;3.97;3.30;;;14.30;99.90;;;;;;5064309;28;20550;-67
2023/01/02 05:52:43;;;;;;;6.13;3.87;;;14.30;99.90;;;;;;5063832;28;20530;-68
2023/01/02 05:55:10;;;;;;;6.30;4.10;;;14.30;99.90;;;;;;5062051;28;20459;-68
2023/01/02 05:57:37;;;;;;;6.93;4.00;;;14.30;99.90;;;;;;5062938;28;20817;-68
2023/01/02 06:00:06;;;;;;;7.63;4.17;;;14.40;99.90;;;;;;5062782;28;20558;-68
2023/01/02 06:02:34;;;;;;;6.13;3.93;;;14.30;99.90;;;;;;5062585;28;20467;-68
2023/01/02 06:05:00;;;;;;;6.40;4.10;;;14.30;99.90;;;;;;5062239;28;20561;-67
2023/01/02 06:07:27;;;;;;;7.70;3.80;;;14.30;99.90;;;;;;5062097;28;21011;-67
2023/01/02 06:09:54;;;;;;;6.13;4.27;;;14.40;99.90;;;;;;5062018;28;20550;-69
2023/01/02 06:12:21;;;;;;;5.87;4.40;;;14.40;99.90;;;;;;5061941;28;20470;-68
2023/01/02 06:14:48;;;;;;;5.40;3.57;;;14.40;99.90;;;;;;5062205;28;20459;-68
2023/01/02 06:17:16;;;;;;;3.93;3.50;;;14.40;99.90;;;;;;5062176;28;20479;-68
2023/01/02 06:19:43;;;;;;;7.00;4.27;;;14.40;99.90;;;;;;5062369;28;20550;-68
2023/01/02 06:22:10;;;;;;;5.73;3.63;;;14.40;99.90;;;;;;5060939;28;20966;-68
2023/01/02 06:24:36;;;;;;;4.90;3.30;;;14.50;99.90;;;;;;5061506;28;20546;-68
2023/01/02 06:27:03;;;;;;;8.50;3.90;;;14.50;99.90;;;;;;5060970;28;20769;-68
2023/01/02 06:29:30;;;;;;;6.07;3.60;;;14.50;99.90;;;;;;5061521;28;20489;-68
2023/01/02 06:31:57;;;;;;;7.17;3.70;;;14.50;99.90;;;;;;5061712;28;20485;-68
2023/01/02 06:34:25;;;;;;;6.20;3.40;;;14.60;99.90;;;;;;5061374;28;20465;-67
2023/01/02 06:36:52;;;;;;;7.47;3.53;;;14.60;99.90;;;;;;5061522;28;20465;-67
2023/01/02 06:39:19;;;;;;;6.80;3.67;;;14.60;99.90;;;;;;5061226;28;20466;-67
2023/01/02 06:41:45;;;;;;;4.23;3.70;;;14.60;99.90;;;;;;5061503;28;20451;-67
2023/01/02 06:44:13;;;;;;;5.07;4.00;;;14.60;99.90;;;;;;5061846;28;20494;-66
2023/01/02 06:46:40;;;;;;;6.60;3.57;;;14.60;99.90;;;;;;5061158;28;20783;-68
2023/01/02 06:49:07;;;;;;;5.57;3.07;;;14.60;99.90;;;;;;5062700;28;20478;-69
2023/01/02 06:51:35;;;;;;;5.07;3.50;;;14.60;99.90;;;;;;5061077;28;20514;-68
2023/01/02 06:54:02;;;;;;;4.80;3.17;;;14.60;99.90;;;;;;5060727;28;20541;-68
2023/01/02 06:56:28;;;;;;;5.60;3.30;;;14.60;99.90;;;;;;5061140;28;20954;-67
2023/01/02 06:58:55;;;;;;;5.13;3.70;;;14.60;99.90;;;;;;5061331;28;20530;-68
2023/01/02 07:01:23;;;;;;;6.93;3.63;;;14.70;99.90;;;;;;5061111;28;20546;-68
2023/01/02 07:03:49;;;;;;;4.97;3.40;;;14.60;99.90;;;;;;5060913;28;20493;-68
2023/01/02 07:06:18;;;;;;;5.67;3.60;;;14.60;99.90;;;;;;5061435;28;20455;-68
2023/01/02 07:08:47;;;;;;;3.80;2.83;;;14.60;99.90;;;;;;5060564;28;20566;-67
2023/01/02 07:11:16;;;;;;;5.20;3.13;;;14.60;99.90;;;;;;5061862;28;20455;-67
2023/01/02 07:13:44;;;;;;;5.80;3.20;;;14.60;99.90;;;;;;5061059;28;20455;-67
2023/01/02 07:16:14;;;;;;;3.67;2.90;;;14.60;99.90;;;;;;5061770;28;20465;-67
2023/01/02 07:18:41;;;;;;;4.50;2.90;;;14.60;99.90;;;;;;5061464;28;20470;-68
2023/01/02 07:21:09;;;;;;;5.83;3.00;;;14.60;99.90;;;;;;5061052;28;20848;-68
2023/01/02 07:23:36;;;;;;;5.47;3.53;;;14.70;99.90;;;;;;5061001;28;20842;-68
2023/01/02 07:26:06;;;;;;;4.80;3.40;;;14.70;99.90;;;;;;5061680;28;20462;-68
2023/01/02 07:28:34;;;;;;;3.60;2.50;;;14.70;99.90;;;;;;5061269;28;20515;-69
2023/01/02 07:31:03;;;;;;;4.70;3.23;;;14.70;99.90;;;;;;5061072;28;20451;-68
2023/01/02 07:33:31;;;;;;;4.43;3.50;;;14.70;99.90;;;;;;5061299;28;20450;-68
2023/01/02 07:35:58;;;;;;;5.77;3.00;;;14.70;99.90;;;;;;5061367;28;20466;-69
2023/01/02 07:38:25;;;;;;;8.07;3.33;;;14.70;99.90;;;;;;5061454;28;20461;-69
2023/01/02 07:40:52;;;;;;;6.53;4.17;;;14.70;99.90;;;;;;5064354;28;20982;-68
2023/01/02 07:43:21;;;;;;;3.00;2.60;;;14.80;99.90;;;;;;5065184;28;20459;-69
2023/01/02 07:45:48;;;;;;;8.20;3.17;;;14.80;99.90;;;;;;5065014;28;20465;-68
2023/01/02 07:48:15;;;;;;;6.03;3.13;;;14.80;99.90;;;;;;5065125;28;20485;-68
2023/01/02 07:50:42;;;;;;;4.80;3.37;;;14.80;99.90;;;;;;5064439;28;20465;-68
2023/01/02 07:53:09;;;;;;;3.97;3.07;;;14.80;99.90;;;;;;5065144;28;20554;-68
2023/01/02 07:55:35;;;;;;;4.63;2.70;;;14.80;99.90;;;;;;5064553;28;20486;-68
2023/01/02 07:58:02;;;;;;;8.40;4.03;;;14.80;99.90;;;;;;5065826;28;20566;-68
2023/01/02 08:00:30;;;;;;;6.13;3.20;;;14.90;99.90;;;;;;5064871;28;20542;-68
2023/01/02 08:02:57;;;;;;;4.17;2.97;;;14.90;99.90;;;;;;5065567;28;20454;-69
2023/01/02 08:05:24;;;;;;;7.03;2.97;;;14.90;99.90;;;;;;5065489;28;20545;-68
2023/01/02 08:07:51;;;;;;;5.07;2.73;;;15.00;99.90;;;;;;5064840;28;20478;-68
2023/01/02 08:10:17;;;;;;;5.63;3.93;;;15.00;99.90;;;;;;5064961;28;20469;-68
2023/01/02 08:12:44;;;;;;;4.70;3.07;;;15.00;99.90;;;;;;5064942;28;20459;-67
2023/01/02 08:15:11;;;;;;;5.60;3.10;;;15.00;99.90;;;;;;5065505;28;20535;-67
2023/01/02 08:17:40;;;;;;;6.80;2.73;;;15.10;99.90;;;;;;5064416;28;20534;-69
2023/01/02 08:20:09;;;;;;;5.40;3.47;;;15.10;99.90;;;;;;5064648;28;20536;-68
2023/01/02 08:22:37;;;;;;;4.20;3.00;;;15.10;99.90;;;;;;5064361;28;20489;-68
2023/01/02 08:25:04;;;;;;;6.17;2.93;;;15.10;99.90;;;;;;5064924;28;20455;-68
2023/01/02 08:27:31;;;;;;;5.30;3.30;;;15.10;99.90;;;;;;5064531;28;20469;-68
2023/01/02 08:29:58;;;;;;;8.57;3.23;;;15.20;99.90;;;;;;5064100;28;20493;-68
2023/01/02 08:32:25;;;;;;;4.00;2.67;;;15.20;99.90;;;;;;5063454;28;20461;-68
2023/01/02 08:34:53;;;;;;;4.30;2.80;;;15.20;99.90;;;;;;5063835;28;20470;-68
2023/01/02 08:37:20;;;;;;;4.10;2.90;;;15.20;99.90;;;;;;5064596;28;20481;-67
2023/01/02 08:39:47;;;;;;;4.17;2.80;;;15.20;99.90;;;;;;5064802;28;20451;-69
2023/01/02 08:42:14;;;;;;;4.20;2.90;;;15.20;99.90;;;;;;5065198;28;21007;-66
2023/01/02 08:44:42;;;;;;;4.13;3.20;;;15.30;99.90;;;;;;5065724;28;20451;-69
2023/01/02 08:47:09;;;;;;;3.77;3.37;;;15.30;99.90;;;;;;5065553;28;20450;-68
2023/01/02 08:49:35;;;;;;;8.93;3.10;;;15.20;99.90;;;;;;5064557;28;20570;-68
2023/01/02 08:52:04;;;;;;;6.20;2.60;;;15.30;99.90;;;;;;5064468;28;20507;-68
2023/01/02 08:54:31;;;;;;;10.40;3.07;;;15.30;99.90;;;;;;5064779;28;20784;-69
2023/01/02 08:56:57;;;;;;;5.47;3.10;;;15.30;99.90;;;;;;5064573;28;20519;-69
2023/01/02 08:59:25;;;;;;;4.40;2.80;;;15.30;99.90;;;;;;5064000;28;20837;-68
2023/01/02 09:01:52;;;;;;;4.50;2.90;;;15.30;99.90;;;;;;5064754;28;20461;-68
2023/01/02 09:04:20;;;;;;;7.00;3.03;;;15.30;99.90;;;;;;5063769;28;20478;-69
2023/01/02 09:06:47;;;;;;;4.67;2.70;;;15.40;99.90;;;;;;5063918;28;20481;-70
2023/01/02 09:09:16;;;;;;;9.40;3.23;;;15.40;99.90;;;;;;5063747;28;20545;-69
2023/01/02 09:11:45;;;;;;;3.70;3.07;;;15.40;99.90;;;;;;5064463;28;20498;-68
2023/01/02 09:14:12;;;;;;;5.63;2.70;;;15.50;99.90;;;;;;5064219;28;20454;-68
2023/01/02 09:16:39;;;;;;;6.93;3.40;;;15.50;99.90;;;;;;5064031;28;20527;-67
2023/01/02 09:19:06;;;;;;;4.67;2.73;;;15.50;99.90;;;;;;5064408;28;20451;-68
2023/01/02 09:21:33;;;;;;;4.97;2.40;;;15.50;99.90;;;;;;5063218;28;20670;-68
2023/01/02 09:24:00;;;;;;;8.97;2.67;;;15.50;99.90;;;;;;5064198;28;20527;-69
2023/01/02 09:26:28;;;;;;;7.80;2.67;;;15.60;99.90;;;;;;5064363;28;20451;-68
2023/01/02 09:28:55;;;;;;;8.93;2.70;;;15.60;99.90;;;;;;5065490;28;20483;-68
2023/01/02 09:31:22;;;;;;;6.70;2.70;;;15.60;99.90;;;;;;5065714;28;20451;-67
2023/01/02 09:33:49;;;;;;;6.43;2.70;;;15.60;99.90;;;;;;5063524;28;20459;-68
2023/01/02 09:36:19;;;;;;;4.00;2.63;;;15.70;99.90;;;;;;5064584;28;20519;-68
2023/01/02 09:38:50;;;;;;;4.97;2.57;;;15.70;99.90;;;;;;5065768;28;20451;-68
2023/01/02 09:41:31;;;;;;;4.80;2.57;;;15.70;99.90;;;;;;5065641;28;20443;-68
2023/01/02 09:44:00;;;;;;;5.37;2.77;;;15.80;99.90;;;;;;5063578;28;20439;-68
2023/01/02 09:46:34;;;;;;;10.40;2.80;;;15.80;99.90;;;;;;5063915;28;20459;-68
2023/01/02 09:49:02;;;;;;;4.43;2.67;;;15.80;99.90;;;;;;5065043;28;20475;-69
2023/01/02 09:51:30;;;;;;;6.97;2.70;;;15.80;99.90;;;;;;5064550;28;20457;-70
2023/01/02 09:53:57;;;;;;;10.77;3.50;;;15.80;99.90;;;;;;5064528;28;20574;-69
2023/01/02 09:56:30;;;;;;;3.67;2.37;;;15.80;99.90;;;;;;5065347;28;20845;-68
2023/01/02 09:59:02;;;;;;;6.47;2.50;;;15.80;99.90;;;;;;5063743;28;20477;-68
2023/01/02 10:01:35;;;;;;;5.33;2.60;;;15.90;99.90;;;;;;5062450;28;20495;-67
2023/01/02 10:04:13;;;;;;;5.50;2.60;;;15.90;99.90;;;;;;5061492;28;20474;-68
2023/01/02 10:06:47;;;;;;;4.10;2.60;;;16.00;99.90;;;;;;5062997;28;20534;-68
2023/01/02 10:09:22;;;;;;;3.63;2.50;;;16.00;99.90;;;;;;5061938;28;20510;-67
2023/01/02 10:11:58;;;;;;;8.23;2.80;;;16.10;99.90;;;;;;5061444;28;20443;-69
2023/01/02 10:14:36;;;;;;;5.63;2.67;;;16.10;99.90;;;;;;5062772;28;20931;-69
2023/01/02 10:17:05;;;;;;;5.53;3.10;;;16.10;99.90;;;;;;5061561;28;20507;-68
2023/01/02 10:19:40;;;;;;;5.03;2.30;;;16.10;99.90;;;;;;5061431;28;20451;-68
2023/01/02 10:22:09;;;;;;;3.90;2.50;;;16.10;99.90;;;;;;5062668;28;20561;-68
2023/01/02 10:24:43;;;;;;;4.80;2.93;;;16.20;99.90;;;;;;5061748;28;20765;-68
2023/01/02 10:27:17;;;;;;;3.67;2.60;;;16.20;99.90;;;;;;5062870;28;20931;-68
2023/01/02 10:29:50;;;;;;;5.63;2.70;;;16.30;99.90;;;;;;5062707;28;20467;-67
2023/01/02 10:32:19;;;;;;;5.30;2.73;;;16.30;99.90;;;;;;5080503;28;20493;-69
2023/01/02 10:34:55;;;;;;;10.80;2.90;;;16.30;99.90;;;;;;5081846;28;20473;-69
2023/01/02 10:37:22;;;;;;;4.83;2.53;;;16.30;99.90;;;;;;5082333;28;20442;-69
2023/01/02 10:39:50;;;;;;;5.20;2.37;;;16.30;99.90;;;;;;5081902;28;20493;-69
2023/01/02 10:42:19;;;;;;;5.80;3.03;;;16.30;99.90;;;;;;5082057;28;20457;-69
2023/01/02 10:44:46;;;;;;;10.13;2.30;;;16.20;99.90;;;;;;5081778;28;20519;-68
2023/01/02 10:47:21;;;;;;;4.73;2.20;;;16.30;99.90;;;;;;5081700;28;20497;-69
2023/01/02 10:49:49;;;;;;;4.37;2.97;;;16.30;99.90;;;;;;5082006;28;20476;-68
2023/01/02 10:52:22;;;;;;;4.07;2.43;;;16.20;99.90;;;;;;5062424;28;20459;-68
2023/01/02 10:54:52;;;;;;;3.80;2.37;;;16.30;99.90;;;;;;5061630;28;20450;-69
2023/01/02 10:57:25;;;;;;;5.90;2.20;;;16.20;99.90;;;;;;5062355;28;20538;-70
2023/01/02 10:59:59;;;;;;;9.53;2.57;;;16.20;99.90;;;;;;5061706;28;20442;-69
2023/01/02 11:02:36;;;;;;;4.90;2.30;;;16.20;99.90;;;;;;5061310;28;20538;-68
2023/01/02 11:05:04;;;;;;;8.67;2.90;;;16.20;99.90;;;;;;5061481;28;20518;-68
2023/01/02 11:07:34;;;;;;;3.50;2.23;;;16.20;99.90;;;;;;5061033;28;20463;-70
2023/01/02 11:10:00;;;;;;;5.03;2.70;;;16.30;99.90;;;;;;5060622;28;20832;-68
2023/01/02 11:12:31;;;;;;;8.60;2.40;;;16.30;99.90;;;;;;5060906;28;20455;-69
2023/01/02 11:15:13;;;;;;;6.30;3.40;;;16.30;99.90;;;;;;5060994;28;20530;-69
2023/01/02 11:17:43;;;;;;;5.73;2.40;;;16.30;99.90;;;;;;5061094;28;20461;-69
2023/01/02 11:20:24;;;;;;;5.30;2.67;;;16.30;99.90;;;;;;5062509;28;20459;-68
2023/01/02 11:22:52;;;;;;;4.70;3.00;;;16.20;99.90;;;;;;5061872;28;20959;-68
2023/01/02 11:25:23;;;;;;;3.80;2.43;;;16.10;99.90;;;;;;5061393;28;20460;-69
2023/01/02 11:27:51;;;;;;;5.40;2.70;;;16.00;99.90;;;;;;5062355;28;20849;-67
2023/01/02 11:30:32;;;;;;;3.80;2.47;;;15.90;99.90;;;;;;5060879;28;20546;-69
2023/01/02 11:33:08;;;;;;;3.53;2.40;;;15.80;99.90;;;;;;5060751;28;20453;-69
2023/01/02 11:35:39;;;;;;;6.40;2.63;;;15.60;99.90;;;;;;5061612;28;20440;-69
2023/01/02 11:38:14;;;;;;;3.40;2.10;;;15.50;99.90;;;;;;5061097;28;20523;-69
2023/01/02 11:40:52;;;;;;;6.90;2.40;;;15.40;99.90;;;;;;5062218;28;20478;-68
2023/01/02 11:46:23;;;;;;;5.40;2.60;;;15.60;99.90;;;;;;5060892;28;20509;-69
2023/01/02 11:48:52;;;;;;;2.70;2.33;;;15.70;99.90;;;;;;5061091;28;20443;-68
2023/01/02 11:51:21;;;;;;;5.93;2.80;;;15.70;99.90;;;;;;5061413;28;20483;-69
2023/01/02 11:53:52;;;;;;;6.83;2.50;;;15.70;99.90;;;;;;5060469;28;20523;-70
2023/01/02 11:56:26;;;;;;;11.03;2.97;;;15.80;99.90;;;;;;5061750;28;20454;-68
2023/01/02 11:59:00;;;;;;;4.50;2.07;;;15.80;99.90;;;;;;5061687;28;20471;-67
2023/01/02 12:01:32;;;;;;;4.13;2.77;;;15.80;99.90;;;;;;5060390;28;20472;-69
2023/01/02 12:04:00;;;;;;;6.40;3.07;;;15.80;99.90;;;;;;5059777;28;20459;-69
2023/01/02 12:06:41;;;;;;;5.83;3.30;;;15.80;99.90;;;;;;5059574;28;20534;-68
2023/01/02 12:09:12;;;;;;;4.90;2.50;;;15.70;99.90;;;;;;5060717;28;20534;-68
2023/01/02 12:12:00;;;;;;;4.53;2.60;;;15.70;99.90;;;;;;5060284;28;20447;-68
2023/01/02 12:14:44;;;;;;;7.60;3.27;;;15.60;99.90;;;;;;5060740;28;20443;-67
2023/01/02 12:17:20;;;;;;;5.50;2.37;;;15.60;99.90;;;;;;5060267;28;20522;-69
2023/01/02 12:20:08;;;;;;;4.63;2.47;;;15.50;99.90;;;;;;5059841;28;20443;-68
2023/01/02 12:22:58;;;;;;;5.97;2.90;;;15.50;99.90;;;;;;5060136;28;21070;-67
2023/01/02 12:25:41;;;;;;;8.63;3.17;;;15.50;99.90;;;;;;5061297;28;20439;-69
2023/01/02 12:28:36;;;;;;;5.93;2.67;;;15.60;99.90;;;;;;5063552;28;20471;-68
2023/01/02 12:31:21;;;;;;;8.97;2.70;;;15.60;99.90;;;;;;5063497;28;20467;-69
2023/01/02 12:33:58;;;;;;;7.47;2.87;;;15.60;99.90;;;;;;5063873;28;20502;-68
2023/01/02 12:36:40;;;;;;;4.13;2.20;;;15.60;99.90;;;;;;5063830;28;20946;-68
2023/01/02 12:39:42;;;;;;;5.00;2.23;;;15.60;99.90;;;;;;5063940;28;20882;-68
2023/01/02 12:42:19;;;;;;;7.70;2.37;;;15.60;99.90;;;;;;5053188;28;20983;-68
2023/01/02 12:44:50;;;;;;;5.90;2.53;;;15.50;99.90;;;;;;5063680;28;20439;-69
2023/01/02 12:47:41;;;;;;;4.83;2.40;;;15.50;99.90;;;;;;5064371;28;20439;-69
2023/01/02 12:50:27;;;;;;;3.73;2.13;;;15.50;99.90;;;;;;5063280;28;20474;-67
2023/01/02 12:53:08;;;;;;;5.87;2.73;;;15.50;99.90;;;;;;5064673;28;20731;-68
2023/01/02 12:55:46;;;;;;;4.90;2.53;;;15.50;99.90;;;;;;5063142;28;20447;-68
2023/01/02 12:58:23;;;;;;;5.10;2.50;;;15.40;99.90;;;;;;5063150;28;20829;-69
2023/01/02 13:00:58;;;;;;;4.53;2.70;;;15.30;99.90;;;;;;5063823;28;20459;-67
2023/01/02 13:03:53;;;;;;;3.77;2.57;;;15.20;99.90;;;;;;5063706;28;20913;-68
2023/01/02 13:06:24;;;;;;;5.33;2.30;;;15.10;99.90;;;;;;5060163;28;20470;-69
2023/01/02 13:08:55;;;;;;;4.83;2.57;;;14.90;99.90;;;;;;5061844;28;20547;-69